Pagrindinis puslapis
METAR-TAF:

METAR-TAF

Oro uostai :

Uden, Nyderlandai

platuma: 51-39N, ilguma: 005-42E, Aukštis: 22 m

Dabartinis oras

Ataskaita buvo paskelbta 17 minutes, ne 10:06 UTC
Vėjas 6 kt iš Rytų/Pietryčių, svyruoja nuo Šiaurės Rytų ir Pietų
Temperatūra 16°C
Drėgmė 48%
Slėgis 1029 hPa
Matomumas 10 km arba daugiau
nėra debesų žemiau 1500 m ir nėra kamuolinių lietaus debesų

METAR: EHVK 201006Z AUTO 13005KT 040V190 9999 OVC320 16/05 Q1029 BLU 11006KT CAVOK

Laikas: 12:23 (10:23 UTC)

Prognozė

Ataskaita buvo paskelbta 2 valandos ir 1 minutes, ne 08:22 UTC
Prognozė galioja nuo 20 metu 09 UTC su 20 metu 21 UTC
Vėjas 4 kt iš Rytų
Matomumas 10 km arba daugiau
nėra debesų žemiau 1500 m ir nėra kamuolinių lietaus debesų

TAF: EHVK 200822Z 2009/2021 09004KT CAVOK

Orai ataskaitas ir orų prognozės (METAR, TAF).

turimą stotys yra geltonos ir raudonos taškus žemėlapyje.

Perkelti pele per norėdami pamatyti stoties vardą.

Tada spustelėkite, norėdami matyti oro stebėjimo ir prognozės.

Norėdami pakeisti žemėlapį: spustelėkite ant žalios mygtukų su juodo kryžiaus žemyn,; žalią mygtuką su brūkšneliu, jei norite nutolinti; arba žalių rodyklių gretimoms žemėlapius.


METAR-TAF: